Flight Track Log - Related Links

Times and Time Zones

All times are in EDT time to prevent confusion due to time zone crossing. See the FIN666 flight status page for this flight to view local times or setup timezone preferences in your user account.

Time Position Orientation Groundspeed Altitude Reporting Facility
EDT Latitude Longitude Course Direction KTS MPH feet Rate Location/Type
Thu 07:32:00 AM 55.9164 13.2747 49° Northeast  Level Estimated
Thu 07:33:00 AM 55.9905 13.4309 50° Northeast  Level Estimated
Thu 07:34:00 AM 56.0644 13.5877 50° Northeast  Level Estimated
Thu 07:35:00 AM 56.1381 13.7451 50° Northeast  Level Estimated
Thu 07:36:00 AM 56.2117 13.9031 50° Northeast  Level Estimated
Thu 07:37:00 AM 56.2850 14.0617 50° Northeast  Level Estimated
Thu 07:38:00 AM 56.3581 14.2208 50° Northeast  Level Estimated
Thu 07:39:00 AM 56.4310 14.3807 50° Northeast  Level Estimated
Thu 07:40:00 AM 56.5037 14.5411 51° Northeast  Level Estimated
Thu 07:41:00 AM 56.5762 14.7021 51° Northeast  Level Estimated
Thu 07:42:00 AM 56.6485 14.8638 51° Northeast  Level Estimated
Thu 07:43:00 AM 56.7206 15.0260 51° Northeast  Level Estimated
Thu 07:44:00 AM 56.7925 15.1889 51° Northeast  Level Estimated
Thu 07:45:00 AM 56.8641 15.3525 51° Northeast  Level Estimated
Thu 07:46:00 AM 56.9356 15.5166 51° Northeast  Level Estimated
Thu 07:47:00 AM 57.0068 15.6814 52° Northeast  Level Estimated
Thu 07:48:00 AM 57.0832 15.8596 52° Northeast  Level Estimated
Thu 07:49:00 AM 57.1595 16.0385 52° Northeast  Level Estimated
Thu 07:50:00 AM 57.2354 16.2181 52° Northeast  Level Estimated
Thu 07:51:00 AM 57.3111 16.3985 52° Northeast  Level Estimated
Thu 07:52:00 AM 57.3865 16.5796 52° Northeast  Level Estimated
Thu 07:53:00 AM 57.4617 16.7614 52° Northeast  Level Estimated
Thu 07:54:00 AM 57.5366 16.9440 53° Northeast  Level Estimated
Thu 07:55:00 AM 57.6031 17.1073 53° Northeast  Level Estimated
Thu 07:56:00 AM 57.6694 17.2711 53° Northeast  Level Estimated
Thu 07:57:00 AM 57.7354 17.4355 53° Northeast  Level Estimated
Thu 07:58:00 AM 57.8013 17.6006 53° Northeast  Level Estimated
Thu 07:59:00 AM 57.8669 17.7662 53° Northeast  Level Estimated
Thu 08:00:00 AM 57.9323 17.9324 53° Northeast  Level Estimated
Thu 08:01:00 AM 57.9975 18.0993 54° Northeast  Level Estimated
Thu 08:02:00 AM 58.0625 18.2667 54° Northeast  Level Estimated
Thu 08:03:00 AM 58.1272 18.4348 54° Northeast  Level Estimated
Thu 08:04:00 AM 58.1918 18.6034 54° Northeast  Level Estimated
Thu 08:05:00 AM 58.2561 18.7727 54° Northeast  Level Estimated
Thu 08:06:00 AM 58.3201 18.9426 54° Northeast  Level Estimated
Thu 08:07:00 AM 58.3840 19.1131 54° Northeast  Level Estimated
Thu 08:08:00 AM 58.4476 19.2842 55° Northeast  Level Estimated
Thu 08:09:00 AM 58.5110 19.4560 55° Northeast  Level Estimated
Thu 08:10:00 AM 58.5742 19.6283 55° Northeast  Level Estimated
Thu 08:11:00 AM 58.6372 19.8013 55° Northeast  Level Estimated
Thu 08:12:00 AM 58.6999 19.9749 55° Northeast  Level Estimated
Thu 08:13:00 AM 58.7623 20.1492 55° Northeast  Level Estimated
Thu 08:14:00 AM 58.8246 20.3240 55° Northeast  Level Estimated
Thu 08:15:00 AM 58.8866 20.4995 56° Northeast  Level Estimated
Thu 08:16:00 AM 58.9483 20.6756 56° Northeast  Level Estimated
Thu 08:17:00 AM 59.0098 20.8524 56° Northeast  Level Estimated
Thu 08:18:00 AM 59.0711 21.0298 56° Northeast  Level Estimated
Thu 08:19:00 AM 59.1322 21.2078 56° Northeast  Level Estimated
Thu 08:20:00 AM 59.1930 21.3864 56° Northeast  Level Estimated
Thu 08:21:00 AM 59.2535 21.5657 56° Northeast  Level Estimated
Thu 08:22:00 AM 59.3138 21.7457 57° Northeast  Level Estimated
Thu 08:23:00 AM 59.3739 21.9262 57° Northeast  Level Estimated
Thu 08:24:00 AM 59.4337 22.1074 57° Northeast  Level Estimated
Thu 08:25:00 AM 59.4932 22.2893 57° Northeast  Level Estimated
Thu 08:26:00 AM 59.5525 22.4717 57° Northeast  Level Estimated
Thu 08:27:00 AM 59.6115 22.6549 57° Northeast  Level Estimated
Thu 08:28:00 AM 59.6703 22.8386 58° Northeast  Level Estimated
Thu 08:29:00 AM 59.7289 23.0230 58° Northeast  Level Estimated
Thu 08:30:00 AM 59.7871 23.2081 58° Northeast  Level Estimated
Thu 08:31:00 AM 59.8451 23.3938 58° Northeast  Level Estimated
Thu 08:32:00 AM 59.9029 23.5802 58° Northeast  Level Estimated
Thu 08:33:00 AM 59.9603 23.7671 58° Northeast  Level Estimated
Thu 08:34:00 AM 60.0176 23.9548 59° Northeast  Level Estimated
Thu 08:35:00 AM 60.0745 24.1431 59° Northeast  Level Estimated
Thu 08:36:00 AM 60.1312 24.3320 59° Northeast  Level Estimated
Thu 08:37:00 AM 60.1876 24.5216 59° Northeast  Level Estimated
Thu 08:38:00 AM 60.2437 24.7119 59° Northeast  Level Estimated
Thu 08:39:00 AM 60.2996 24.9028 59° Northeast  Level Estimated
Thu 08:40:00 AM 60.3172 24.9633 60° Northeast  Level Estimated
Thu 08:41:00 AM 60.3172 24.9633 North  Level Estimated
Thu 08:42:00 AM 60.3172 24.9633 North  Level Estimated
Thu 08:43:00 AM 60.3172 24.9633 North  Level Estimated
Thu 08:44:00 AM 60.3172 24.9633 North  Level Estimated
Thu 08:45:00 AM 60.3172 24.9633 North  Level Estimated
Thu 08:46:00 AM 60.3172 24.9633 North  Level Estimated
Thu 08:47:00 AM 60.3172 24.9633 North  Level Estimated
Thu 08:48:00 AM 60.3172 24.9633 North  Level Estimated
Thu 08:49:00 AM 60.3172 24.9633 North  Level Estimated
Thu 08:50:00 AM 60.3172 24.9633 North  Level Estimated
Thu 08:51:00 AM 60.3172 24.9633 North  Level Estimated
Thu 08:52:00 AM 60.3172 24.9633 North  Level Estimated
Thu 08:53:00 AM 60.3172 24.9633 North  Level Estimated

Login

Don't have an account? Register now (free) for customized features, flight alerts, and more!